sensor_id;sensor_type;location;lat;lon;timestamp;P1;durP1;ratioP1;P2;durP2;ratioP2
36221;SDS011;22266;52.340;4.962;2023-05-10T00:00:09;27.00;;;24.25;;
36221;SDS011;22266;52.340;4.962;2023-05-10T00:02:39;26.50;;;20.50;;
36221;SDS011;22266;52.340;4.962;2023-05-10T00:05:06;26.75;;;23.25;;
36221;SDS011;22266;52.340;4.962;2023-05-10T00:07:33;23.25;;;20.00;;
36221;SDS011;22266;52.340;4.962;2023-05-10T00:10:00;23.75;;;21.75;;
36221;SDS011;22266;52.340;4.962;2023-05-10T00:12:26;23.00;;;22.25;;
36221;SDS011;22266;52.340;4.962;2023-05-10T00:14:52;21.25;;;17.75;;
36221;SDS011;22266;52.340;4.962;2023-05-10T00:17:19;28.75;;;26.25;;
36221;SDS011;22266;52.340;4.962;2023-05-10T00:19:46;31.00;;;23.75;;
36221;SDS011;22266;52.340;4.962;2023-05-10T00:22:12;25.25;;;21.75;;
36221;SDS011;22266;52.340;4.962;2023-05-10T00:24:39;25.50;;;23.50;;
36221;SDS011;22266;52.340;4.962;2023-05-10T00:27:05;28.75;;;26.25;;
36221;SDS011;22266;52.340;4.962;2023-05-10T00:29:31;26.50;;;25.25;;
36221;SDS011;22266;52.340;4.962;2023-05-10T00:31:59;22.00;;;19.50;;
36221;SDS011;22266;52.340;4.962;2023-05-10T00:34:26;21.50;;;21.00;;
36221;SDS011;22266;52.340;4.962;2023-05-10T00:36:53;26.50;;;25.75;;
36221;SDS011;22266;52.340;4.962;2023-05-10T00:39:19;25.00;;;23.00;;
36221;SDS011;22266;52.340;4.962;2023-05-10T00:41:46;29.00;;;26.00;;
36221;SDS011;22266;52.340;4.962;2023-05-10T00:44:12;28.75;;;25.75;;
36221;SDS011;22266;52.340;4.962;2023-05-10T00:46:40;21.00;;;21.00;;
36221;SDS011;22266;52.340;4.962;2023-05-10T00:49:08;23.00;;;22.00;;
36221;SDS011;22266;52.340;4.962;2023-05-10T00:51:34;29.00;;;26.75;;
36221;SDS011;22266;52.340;4.962;2023-05-10T00:54:01;27.50;;;27.00;;
36221;SDS011;22266;52.340;4.962;2023-05-10T00:56:28;32.75;;;27.00;;
36221;SDS011;22266;52.340;4.962;2023-05-10T00:58:55;26.75;;;24.00;;
36221;SDS011;22266;52.340;4.962;2023-05-10T01:01:22;25.50;;;24.50;;
36221;SDS011;22266;52.340;4.962;2023-05-10T01:03:50;24.50;;;23.25;;
36221;SDS011;22266;52.340;4.962;2023-05-10T01:06:17;30.00;;;26.00;;
36221;SDS011;22266;52.340;4.962;2023-05-10T01:08:44;41.00;;;33.00;;
36221;SDS011;22266;52.340;4.962;2023-05-10T01:11:10;39.50;;;33.00;;
36221;SDS011;22266;52.340;4.962;2023-05-10T01:13:37;35.75;;;34.00;;
36221;SDS011;22266;52.340;4.962;2023-05-10T01:16:06;29.75;;;27.75;;
36221;SDS011;22266;52.340;4.962;2023-05-10T01:18:34;34.50;;;31.25;;
36221;SDS011;22266;52.340;4.962;2023-05-10T01:21:08;33.00;;;29.00;;
36221;SDS011;22266;52.340;4.962;2023-05-10T01:29:33;31.75;;;29.00;;
36221;SDS011;22266;52.340;4.962;2023-05-10T01:32:14;27.25;;;26.50;;
36221;SDS011;22266;52.340;4.962;2023-05-10T01:37:50;35.00;;;31.75;;
36221;SDS011;22266;52.340;4.962;2023-05-10T01:40:25;35.00;;;30.75;;
36221;SDS011;22266;52.340;4.962;2023-05-10T01:43:03;33.00;;;31.50;;
36221;SDS011;22266;52.340;4.962;2023-05-10T01:45:38;32.00;;;32.00;;
36221;SDS011;22266;52.340;4.962;2023-05-10T01:48:14;37.00;;;32.75;;
36221;SDS011;22266;52.340;4.962;2023-05-10T01:50:42;34.25;;;29.00;;
36221;SDS011;22266;52.340;4.962;2023-05-10T01:53:12;30.50;;;29.50;;
36221;SDS011;22266;52.340;4.962;2023-05-10T01:55:47;33.25;;;33.00;;
36221;SDS011;22266;52.340;4.962;2023-05-10T01:58:18;34.50;;;32.00;;
36221;SDS011;22266;52.340;4.962;2023-05-10T02:00:49;33.50;;;31.75;;
36221;SDS011;22266;52.340;4.962;2023-05-10T02:03:18;31.75;;;27.00;;
36221;SDS011;22266;52.340;4.962;2023-05-10T02:05:48;36.50;;;30.75;;
36221;SDS011;22266;52.340;4.962;2023-05-10T02:08:16;38.25;;;34.75;;
36221;SDS011;22266;52.340;4.962;2023-05-10T02:10:45;37.25;;;34.25;;
36221;SDS011;22266;52.340;4.962;2023-05-10T02:13:15;38.50;;;35.50;;
36221;SDS011;22266;52.340;4.962;2023-05-10T02:15:43;35.25;;;29.25;;
36221;SDS011;22266;52.340;4.962;2023-05-10T02:18:14;44.50;;;36.75;;
36221;SDS011;22266;52.340;4.962;2023-05-10T02:20:43;38.25;;;36.25;;
36221;SDS011;22266;52.340;4.962;2023-05-10T02:23:11;44.50;;;36.50;;
36221;SDS011;22266;52.340;4.962;2023-05-10T02:25:39;47.00;;;40.75;;
36221;SDS011;22266;52.340;4.962;2023-05-10T02:28:07;33.25;;;32.00;;
36221;SDS011;22266;52.340;4.962;2023-05-10T02:30:36;43.50;;;39.00;;
36221;SDS011;22266;52.340;4.962;2023-05-10T02:33:04;37.00;;;34.75;;
36221;SDS011;22266;52.340;4.962;2023-05-10T02:35:31;30.25;;;29.00;;
36221;SDS011;22266;52.340;4.962;2023-05-10T02:38:00;45.00;;;38.50;;
36221;SDS011;22266;52.340;4.962;2023-05-10T02:40:28;41.25;;;37.00;;
36221;SDS011;22266;52.340;4.962;2023-05-10T02:42:56;37.50;;;32.25;;
36221;SDS011;22266;52.340;4.962;2023-05-10T02:45:25;39.75;;;36.25;;
36221;SDS011;22266;52.340;4.962;2023-05-10T02:47:55;46.75;;;39.25;;
36221;SDS011;22266;52.340;4.962;2023-05-10T02:50:22;40.25;;;36.00;;
36221;SDS011;22266;52.340;4.962;2023-05-10T02:52:54;34.00;;;29.75;;
36221;SDS011;22266;52.340;4.962;2023-05-10T02:55:26;41.75;;;36.75;;
36221;SDS011;22266;52.340;4.962;2023-05-10T02:58:02;36.00;;;32.00;;
36221;SDS011;22266;52.340;4.962;2023-05-10T03:00:29;31.50;;;28.25;;
36221;SDS011;22266;52.340;4.962;2023-05-10T03:02:56;38.75;;;33.00;;
36221;SDS011;22266;52.340;4.962;2023-05-10T03:05:24;36.75;;;28.75;;
36221;SDS011;22266;52.340;4.962;2023-05-10T03:07:51;34.00;;;30.50;;
36221;SDS011;22266;52.340;4.962;2023-05-10T03:10:19;36.25;;;29.75;;
36221;SDS011;22266;52.340;4.962;2023-05-10T03:13:01;30.00;;;29.00;;
36221;SDS011;22266;52.340;4.962;2023-05-10T03:15:42;32.50;;;28.75;;
36221;SDS011;22266;52.340;4.962;2023-05-10T03:18:29;27.25;;;25.00;;
36221;SDS011;22266;52.340;4.962;2023-05-10T03:21:04;31.00;;;28.00;;
36221;SDS011;22266;52.340;4.962;2023-05-10T03:23:41;29.75;;;26.50;;
36221;SDS011;22266;52.340;4.962;2023-05-10T03:26:12;32.75;;;31.50;;
36221;SDS011;22266;52.340;4.962;2023-05-10T03:29:00;30.25;;;28.25;;
36221;SDS011;22266;52.340;4.962;2023-05-10T03:31:28;37.00;;;34.00;;
36221;SDS011;22266;52.340;4.962;2023-05-10T03:33:54;37.25;;;32.50;;
36221;SDS011;22266;52.340;4.962;2023-05-10T03:36:24;28.00;;;26.75;;
36221;SDS011;22266;52.340;4.962;2023-05-10T03:38:51;29.75;;;24.75;;
36221;SDS011;22266;52.340;4.962;2023-05-10T03:41:17;31.75;;;28.75;;
36221;SDS011;22266;52.340;4.962;2023-05-10T03:43:44;32.75;;;27.75;;
36221;SDS011;22266;52.340;4.962;2023-05-10T03:46:10;32.50;;;28.50;;
36221;SDS011;22266;52.340;4.962;2023-05-10T03:48:37;35.75;;;31.75;;
36221;SDS011;22266;52.340;4.962;2023-05-10T03:51:03;34.00;;;32.00;;
36221;SDS011;22266;52.340;4.962;2023-05-10T03:53:30;28.75;;;24.00;;
36221;SDS011;22266;52.340;4.962;2023-05-10T03:55:56;35.25;;;32.50;;
36221;SDS011;22266;52.340;4.962;2023-05-10T03:58:23;29.00;;;28.25;;
36221;SDS011;22266;52.340;4.962;2023-05-10T04:00:50;24.25;;;23.75;;
36221;SDS011;22266;52.340;4.962;2023-05-10T04:03:17;30.50;;;25.50;;
36221;SDS011;22266;52.340;4.962;2023-05-10T04:05:44;32.50;;;26.75;;
36221;SDS011;22266;52.340;4.962;2023-05-10T04:08:10;30.00;;;23.75;;
36221;SDS011;22266;52.340;4.962;2023-05-10T04:10:37;31.50;;;25.50;;
36221;SDS011;22266;52.340;4.962;2023-05-10T04:13:03;22.25;;;19.75;;
36221;SDS011;22266;52.340;4.962;2023-05-10T04:15:30;22.75;;;21.50;;
36221;SDS011;22266;52.340;4.962;2023-05-10T04:17:56;24.25;;;21.25;;
36221;SDS011;22266;52.340;4.962;2023-05-10T04:20:23;25.25;;;21.25;;
36221;SDS011;22266;52.340;4.962;2023-05-10T04:22:49;26.50;;;22.50;;
36221;SDS011;22266;52.340;4.962;2023-05-10T04:25:16;24.25;;;21.50;;
36221;SDS011;22266;52.340;4.962;2023-05-10T04:27:43;29.75;;;24.50;;
36221;SDS011;22266;52.340;4.962;2023-05-10T04:30:09;29.25;;;28.25;;
36221;SDS011;22266;52.340;4.962;2023-05-10T04:32:36;23.50;;;21.25;;
36221;SDS011;22266;52.340;4.962;2023-05-10T04:35:03;22.50;;;20.25;;
36221;SDS011;22266;52.340;4.962;2023-05-10T04:37:30;27.00;;;23.50;;
36221;SDS011;22266;52.340;4.962;2023-05-10T04:39:57;24.25;;;22.75;;
36221;SDS011;22266;52.340;4.962;2023-05-10T04:42:23;25.00;;;22.25;;
36221;SDS011;22266;52.340;4.962;2023-05-10T04:44:50;28.50;;;24.25;;
36221;SDS011;22266;52.340;4.962;2023-05-10T04:47:17;22.25;;;19.50;;
36221;SDS011;22266;52.340;4.962;2023-05-10T04:49:44;22.00;;;21.00;;
36221;SDS011;22266;52.340;4.962;2023-05-10T04:52:11;26.75;;;23.00;;
36221;SDS011;22266;52.340;4.962;2023-05-10T04:54:37;22.25;;;19.75;;
36221;SDS011;22266;52.340;4.962;2023-05-10T04:57:04;23.75;;;22.50;;
36221;SDS011;22266;52.340;4.962;2023-05-10T04:59:30;21.50;;;20.50;;
36221;SDS011;22266;52.340;4.962;2023-05-10T05:01:56;32.00;;;27.75;;
36221;SDS011;22266;52.340;4.962;2023-05-10T05:04:23;23.50;;;23.50;;
36221;SDS011;22266;52.340;4.962;2023-05-10T05:06:50;24.50;;;21.25;;
36221;SDS011;22266;52.340;4.962;2023-05-10T05:09:19;25.25;;;21.75;;
36221;SDS011;22266;52.340;4.962;2023-05-10T05:11:45;27.25;;;24.75;;
36221;SDS011;22266;52.340;4.962;2023-05-10T05:14:12;25.00;;;22.75;;
36221;SDS011;22266;52.340;4.962;2023-05-10T05:16:38;22.00;;;17.75;;
36221;SDS011;22266;52.340;4.962;2023-05-10T05:19:05;24.75;;;19.00;;
36221;SDS011;22266;52.340;4.962;2023-05-10T05:21:31;21.50;;;20.50;;
36221;SDS011;22266;52.340;4.962;2023-05-10T05:23:58;16.75;;;15.50;;
36221;SDS011;22266;52.340;4.962;2023-05-10T05:26:25;20.00;;;16.00;;
36221;SDS011;22266;52.340;4.962;2023-05-10T05:28:52;31.25;;;21.25;;
36221;SDS011;22266;52.340;4.962;2023-05-10T05:31:20;21.75;;;18.50;;
36221;SDS011;22266;52.340;4.962;2023-05-10T05:33:47;19.25;;;15.25;;
36221;SDS011;22266;52.340;4.962;2023-05-10T05:36:13;19.00;;;18.00;;
36221;SDS011;22266;52.340;4.962;2023-05-10T05:38:40;21.25;;;15.00;;
36221;SDS011;22266;52.340;4.962;2023-05-10T05:41:06;16.75;;;16.75;;
36221;SDS011;22266;52.340;4.962;2023-05-10T05:43:36;20.75;;;19.00;;
36221;SDS011;22266;52.340;4.962;2023-05-10T05:46:04;18.25;;;16.50;;
36221;SDS011;22266;52.340;4.962;2023-05-10T05:48:30;10.00;;;9.50;;
36221;SDS011;22266;52.340;4.962;2023-05-10T05:50:57;15.75;;;15.50;;
36221;SDS011;22266;52.340;4.962;2023-05-10T05:53:23;16.25;;;13.75;;
36221;SDS011;22266;52.340;4.962;2023-05-10T05:55:53;10.00;;;10.00;;
36221;SDS011;22266;52.340;4.962;2023-05-10T05:58:21;16.00;;;13.00;;
36221;SDS011;22266;52.340;4.962;2023-05-10T06:00:48;11.50;;;11.00;;
36221;SDS011;22266;52.340;4.962;2023-05-10T06:03:15;15.75;;;12.00;;
36221;SDS011;22266;52.340;4.962;2023-05-10T06:05:42;15.25;;;12.50;;
36221;SDS011;22266;52.340;4.962;2023-05-10T06:08:09;17.00;;;12.75;;
36221;SDS011;22266;52.340;4.962;2023-05-10T06:10:36;12.25;;;12.25;;
36221;SDS011;22266;52.340;4.962;2023-05-10T06:13:03;8.75;;;8.75;;
36221;SDS011;22266;52.340;4.962;2023-05-10T06:15:29;9.50;;;9.50;;
36221;SDS011;22266;52.340;4.962;2023-05-10T06:17:56;21.25;;;15.25;;
36221;SDS011;22266;52.340;4.962;2023-05-10T06:20:22;11.75;;;11.50;;
36221;SDS011;22266;52.340;4.962;2023-05-10T06:22:49;17.00;;;14.00;;
36221;SDS011;22266;52.340;4.962;2023-05-10T06:25:15;11.00;;;8.75;;
36221;SDS011;22266;52.340;4.962;2023-05-10T06:27:44;13.50;;;12.75;;
36221;SDS011;22266;52.340;4.962;2023-05-10T06:30:16;10.75;;;10.75;;
36221;SDS011;22266;52.340;4.962;2023-05-10T06:32:42;13.00;;;10.75;;
36221;SDS011;22266;52.340;4.962;2023-05-10T06:35:10;11.50;;;11.50;;
36221;SDS011;22266;52.340;4.962;2023-05-10T06:37:36;16.75;;;12.50;;
36221;SDS011;22266;52.340;4.962;2023-05-10T06:40:03;13.25;;;13.25;;
36221;SDS011;22266;52.340;4.962;2023-05-10T06:42:30;15.25;;;13.50;;
36221;SDS011;22266;52.340;4.962;2023-05-10T06:44:56;13.50;;;12.00;;
36221;SDS011;22266;52.340;4.962;2023-05-10T06:47:23;17.50;;;13.75;;
36221;SDS011;22266;52.340;4.962;2023-05-10T06:49:49;17.75;;;17.50;;
36221;SDS011;22266;52.340;4.962;2023-05-10T06:52:16;19.25;;;15.25;;
36221;SDS011;22266;52.340;4.962;2023-05-10T06:54:42;10.25;;;10.25;;
36221;SDS011;22266;52.340;4.962;2023-05-10T06:57:08;11.50;;;10.25;;
36221;SDS011;22266;52.340;4.962;2023-05-10T06:59:55;24.00;;;19.75;;
36221;SDS011;22266;52.340;4.962;2023-05-10T07:02:24;15.25;;;12.50;;
36221;SDS011;22266;52.340;4.962;2023-05-10T07:04:51;15.00;;;11.50;;
36221;SDS011;22266;52.340;4.962;2023-05-10T07:07:18;18.25;;;17.50;;
36221;SDS011;22266;52.340;4.962;2023-05-10T07:09:45;15.50;;;13.75;;
36221;SDS011;22266;52.340;4.962;2023-05-10T07:12:12;13.50;;;10.25;;
36221;SDS011;22266;52.340;4.962;2023-05-10T07:14:41;17.00;;;14.50;;
36221;SDS011;22266;52.340;4.962;2023-05-10T07:17:08;15.00;;;14.00;;
36221;SDS011;22266;52.340;4.962;2023-05-10T07:19:34;12.25;;;11.00;;
36221;SDS011;22266;52.340;4.962;2023-05-10T07:22:02;15.00;;;13.00;;
36221;SDS011;22266;52.340;4.962;2023-05-10T07:24:28;16.25;;;14.50;;
36221;SDS011;22266;52.340;4.962;2023-05-10T07:26:54;15.75;;;13.50;;
36221;SDS011;22266;52.340;4.962;2023-05-10T07:29:21;10.50;;;9.50;;
36221;SDS011;22266;52.340;4.962;2023-05-10T07:31:47;15.50;;;11.00;;
36221;SDS011;22266;52.340;4.962;2023-05-10T07:34:14;15.00;;;12.75;;
36221;SDS011;22266;52.340;4.962;2023-05-10T07:36:40;13.00;;;12.50;;
36221;SDS011;22266;52.340;4.962;2023-05-10T07:39:07;17.75;;;13.50;;
36221;SDS011;22266;52.340;4.962;2023-05-10T07:41:33;12.25;;;11.25;;
36221;SDS011;22266;52.340;4.962;2023-05-10T07:44:01;13.25;;;11.00;;
36221;SDS011;22266;52.340;4.962;2023-05-10T07:46:27;15.75;;;13.00;;
36221;SDS011;22266;52.340;4.962;2023-05-10T07:48:54;16.25;;;15.00;;
36221;SDS011;22266;52.340;4.962;2023-05-10T07:51:21;17.00;;;15.75;;
36221;SDS011;22266;52.340;4.962;2023-05-10T07:53:48;13.50;;;12.75;;
36221;SDS011;22266;52.340;4.962;2023-05-10T07:58:55;11.75;;;11.75;;
36221;SDS011;22266;52.340;4.962;2023-05-10T08:01:22;11.00;;;10.00;;
36221;SDS011;22266;52.340;4.962;2023-05-10T08:03:49;12.75;;;10.00;;
36221;SDS011;22266;52.340;4.962;2023-05-10T08:06:17;11.75;;;11.00;;
36221;SDS011;22266;52.340;4.962;2023-05-10T08:08:45;16.00;;;15.75;;
36221;SDS011;22266;52.340;4.962;2023-05-10T08:11:18;15.25;;;11.75;;
36221;SDS011;22266;52.340;4.962;2023-05-10T08:13:46;13.00;;;10.75;;
36221;SDS011;22266;52.340;4.962;2023-05-10T08:16:15;12.00;;;12.00;;
36221;SDS011;22266;52.340;4.962;2023-05-10T08:18:43;12.00;;;12.00;;
36221;SDS011;22266;52.340;4.962;2023-05-10T08:21:11;13.25;;;9.75;;
36221;SDS011;22266;52.340;4.962;2023-05-10T08:23:37;12.50;;;9.50;;
36221;SDS011;22266;52.340;4.962;2023-05-10T08:26:03;9.75;;;9.50;;
36221;SDS011;22266;52.340;4.962;2023-05-10T08:28:30;11.75;;;10.00;;
36221;SDS011;22266;52.340;4.962;2023-05-10T08:30:56;9.00;;;7.00;;
36221;SDS011;22266;52.340;4.962;2023-05-10T08:33:23;8.00;;;7.33;;
36221;SDS011;22266;52.340;4.962;2023-05-10T08:35:49;6.00;;;6.00;;
36221;SDS011;22266;52.340;4.962;2023-05-10T08:38:16;9.33;;;6.00;;
36221;SDS011;22266;52.340;4.962;2023-05-10T08:40:43;9.67;;;6.67;;
36221;SDS011;22266;52.340;4.962;2023-05-10T08:43:10;7.33;;;6.67;;
36221;SDS011;22266;52.340;4.962;2023-05-10T08:45:39;5.33;;;5.33;;
36221;SDS011;22266;52.340;4.962;2023-05-10T08:48:07;7.33;;;6.33;;
36221;SDS011;22266;52.340;4.962;2023-05-10T08:50:36;4.33;;;4.33;;
36221;SDS011;22266;52.340;4.962;2023-05-10T08:53:04;6.33;;;6.00;;
36221;SDS011;22266;52.340;4.962;2023-05-10T08:55:33;6.00;;;6.00;;
36221;SDS011;22266;52.340;4.962;2023-05-10T08:58:00;8.00;;;7.00;;
36221;SDS011;22266;52.340;4.962;2023-05-10T09:00:26;5.67;;;5.00;;
36221;SDS011;22266;52.340;4.962;2023-05-10T09:02:54;6.67;;;5.00;;
36221;SDS011;22266;52.340;4.962;2023-05-10T09:05:21;5.67;;;5.33;;
36221;SDS011;22266;52.340;4.962;2023-05-10T09:07:47;5.00;;;5.00;;
36221;SDS011;22266;52.340;4.962;2023-05-10T09:10:14;6.33;;;5.67;;
36221;SDS011;22266;52.340;4.962;2023-05-10T09:12:42;5.00;;;3.33;;
36221;SDS011;22266;52.340;4.962;2023-05-10T09:15:10;8.00;;;6.00;;
36221;SDS011;22266;52.340;4.962;2023-05-10T09:17:41;3.00;;;3.00;;
36221;SDS011;22266;52.340;4.962;2023-05-10T09:20:09;5.00;;;5.00;;
36221;SDS011;22266;52.340;4.962;2023-05-10T09:22:36;5.33;;;5.00;;
36221;SDS011;22266;52.340;4.962;2023-05-10T09:25:13;8.67;;;6.33;;
36221;SDS011;22266;52.340;4.962;2023-05-10T09:27:44;5.00;;;4.33;;
36221;SDS011;22266;52.340;4.962;2023-05-10T09:30:24;5.67;;;5.67;;
36221;SDS011;22266;52.340;4.962;2023-05-10T09:32:52;8.00;;;7.00;;
36221;SDS011;22266;52.340;4.962;2023-05-10T09:35:21;5.00;;;2.00;;
36221;SDS011;22266;52.340;4.962;2023-05-10T09:37:53;8.00;;;6.33;;
36221;SDS011;22266;52.340;4.962;2023-05-10T09:40:21;4.00;;;4.00;;
36221;SDS011;22266;52.340;4.962;2023-05-10T09:42:56;6.67;;;4.33;;
36221;SDS011;22266;52.340;4.962;2023-05-10T09:45:25;6.67;;;6.67;;
36221;SDS011;22266;52.340;4.962;2023-05-10T09:47:54;6.00;;;5.00;;
36221;SDS011;22266;52.340;4.962;2023-05-10T09:50:21;7.00;;;6.67;;
36221;SDS011;22266;52.340;4.962;2023-05-10T09:52:48;4.33;;;4.33;;
36221;SDS011;22266;52.340;4.962;2023-05-10T09:55:18;5.00;;;3.00;;
36221;SDS011;22266;52.340;4.962;2023-05-10T09:57:49;9.33;;;4.67;;
36221;SDS011;22266;52.340;4.962;2023-05-10T10:00:24;6.00;;;6.00;;
36221;SDS011;22266;52.340;4.962;2023-05-10T10:02:54;2.33;;;2.33;;
36221;SDS011;22266;52.340;4.962;2023-05-10T10:05:28;2.67;;;2.67;;
36221;SDS011;22266;52.340;4.962;2023-05-10T10:07:56;3.33;;;3.33;;
36221;SDS011;22266;52.340;4.962;2023-05-10T10:10:24;2.67;;;2.67;;
36221;SDS011;22266;52.340;4.962;2023-05-10T10:12:54;2.00;;;2.00;;
36221;SDS011;22266;52.340;4.962;2023-05-10T10:15:21;2.00;;;2.00;;
36221;SDS011;22266;52.340;4.962;2023-05-10T10:17:49;1.00;;;1.00;;
36221;SDS011;22266;52.340;4.962;2023-05-10T10:20:17;3.33;;;2.00;;
36221;SDS011;22266;52.340;4.962;2023-05-10T10:22:46;2.33;;;2.33;;
36221;SDS011;22266;52.340;4.962;2023-05-10T10:25:14;6.00;;;3.33;;
36221;SDS011;22266;52.340;4.962;2023-05-10T10:30:25;1.67;;;1.33;;
36221;SDS011;22266;52.340;4.962;2023-05-10T10:35:53;3.33;;;3.33;;
36221;SDS011;22266;52.340;4.962;2023-05-10T10:38:21;1.00;;;1.00;;
36221;SDS011;22266;52.340;4.962;2023-05-10T10:40:48;4.00;;;4.00;;
36221;SDS011;22266;52.340;4.962;2023-05-10T10:43:28;4.00;;;4.00;;
36221;SDS011;22266;52.340;4.962;2023-05-10T10:46:15;4.00;;;2.33;;
36221;SDS011;22266;52.340;4.962;2023-05-10T10:48:47;9.67;;;5.00;;
36221;SDS011;22266;52.340;4.962;2023-05-10T10:51:14;3.33;;;3.33;;
36221;SDS011;22266;52.340;4.962;2023-05-10T10:53:41;2.33;;;2.33;;
36221;SDS011;22266;52.340;4.962;2023-05-10T10:56:08;3.00;;;3.00;;
36221;SDS011;22266;52.340;4.962;2023-05-10T10:58:36;3.00;;;3.00;;
36221;SDS011;22266;52.340;4.962;2023-05-10T11:01:11;2.33;;;2.00;;
36221;SDS011;22266;52.340;4.962;2023-05-10T11:06:41;2.67;;;2.00;;
36221;SDS011;22266;52.340;4.962;2023-05-10T11:09:09;2.00;;;2.00;;
36221;SDS011;22266;52.340;4.962;2023-05-10T11:11:52;2.00;;;2.00;;
36221;SDS011;22266;52.340;4.962;2023-05-10T11:14:24;1.67;;;1.67;;
36221;SDS011;22266;52.340;4.962;2023-05-10T11:16:51;2.33;;;2.00;;
36221;SDS011;22266;52.340;4.962;2023-05-10T11:19:18;1.33;;;1.33;;
36221;SDS011;22266;52.340;4.962;2023-05-10T11:24:21;4.00;;;1.33;;
36221;SDS011;22266;52.340;4.962;2023-05-10T11:26:49;2.00;;;2.00;;
36221;SDS011;22266;52.340;4.962;2023-05-10T11:29:17;3.00;;;2.00;;
36221;SDS011;22266;52.340;4.962;2023-05-10T11:31:44;2.00;;;2.00;;
36221;SDS011;22266;52.340;4.962;2023-05-10T11:34:34;0.67;;;0.67;;
36221;SDS011;22266;52.340;4.962;2023-05-10T11:37:00;2.00;;;2.00;;
36221;SDS011;22266;52.340;4.962;2023-05-10T11:39:27;2.67;;;2.00;;
36221;SDS011;22266;52.340;4.962;2023-05-10T11:41:55;3.67;;;3.67;;
36221;SDS011;22266;52.340;4.962;2023-05-10T11:44:22;4.33;;;3.00;;
36221;SDS011;22266;52.340;4.962;2023-05-10T11:46:49;1.00;;;1.00;;
36221;SDS011;22266;52.340;4.962;2023-05-10T11:49:16;1.00;;;1.00;;
36221;SDS011;22266;52.340;4.962;2023-05-10T11:51:42;1.67;;;1.67;;
36221;SDS011;22266;52.340;4.962;2023-05-10T11:54:10;2.00;;;2.00;;
36221;SDS011;22266;52.340;4.962;2023-05-10T11:56:37;1.00;;;1.00;;
36221;SDS011;22266;52.340;4.962;2023-05-10T11:59:05;2.00;;;2.00;;
36221;SDS011;22266;52.340;4.962;2023-05-10T12:01:32;4.00;;;4.00;;
36221;SDS011;22266;52.340;4.962;2023-05-10T12:03:59;2.00;;;2.00;;
36221;SDS011;22266;52.340;4.962;2023-05-10T12:06:27;4.00;;;2.00;;
36221;SDS011;22266;52.340;4.962;2023-05-10T12:08:55;2.00;;;1.00;;
36221;SDS011;22266;52.340;4.962;2023-05-10T12:11:24;5.00;;;5.00;;
36221;SDS011;22266;52.340;4.962;2023-05-10T12:13:52;10.00;;;6.67;;
36221;SDS011;22266;52.340;4.962;2023-05-10T12:16:22;6.00;;;6.00;;
36221;SDS011;22266;52.340;4.962;2023-05-10T12:18:50;8.25;;;6.00;;
36221;SDS011;22266;52.340;4.962;2023-05-10T12:21:18;10.00;;;6.00;;
36221;SDS011;22266;52.340;4.962;2023-05-10T12:23:46;7.00;;;4.00;;
36221;SDS011;22266;52.340;4.962;2023-05-10T12:26:14;8.67;;;7.33;;
36221;SDS011;22266;52.340;4.962;2023-05-10T12:28:41;5.00;;;5.00;;
36221;SDS011;22266;52.340;4.962;2023-05-10T12:31:07;4.00;;;2.00;;
36221;SDS011;22266;52.340;4.962;2023-05-10T12:36:05;4.00;;;4.00;;
36221;SDS011;22266;52.340;4.962;2023-05-10T12:38:33;6.00;;;6.00;;
36221;SDS011;22266;52.340;4.962;2023-05-10T12:41:07;6.00;;;5.00;;
36221;SDS011;22266;52.340;4.962;2023-05-10T12:43:39;6.33;;;5.67;;
36221;SDS011;22266;52.340;4.962;2023-05-10T12:48:37;9.67;;;9.67;;
36221;SDS011;22266;52.340;4.962;2023-05-10T12:51:05;5.50;;;5.50;;
36221;SDS011;22266;52.340;4.962;2023-05-10T12:53:35;6.75;;;5.75;;
36221;SDS011;22266;52.340;4.962;2023-05-10T12:56:02;6.00;;;6.00;;
36221;SDS011;22266;52.340;4.962;2023-05-10T12:58:29;8.67;;;8.67;;
36221;SDS011;22266;52.340;4.962;2023-05-10T13:00:58;10.67;;;7.33;;
36221;SDS011;22266;52.340;4.962;2023-05-10T13:03:25;4.00;;;4.00;;
36221;SDS011;22266;52.340;4.962;2023-05-10T13:05:51;7.50;;;6.25;;
36221;SDS011;22266;52.340;4.962;2023-05-10T13:08:18;6.25;;;6.00;;
36221;SDS011;22266;52.340;4.962;2023-05-10T13:10:44;5.00;;;5.00;;
36221;SDS011;22266;52.340;4.962;2023-05-10T13:13:11;6.33;;;4.67;;
36221;SDS011;22266;52.340;4.962;2023-05-10T13:15:37;5.00;;;3.00;;
36221;SDS011;22266;52.340;4.962;2023-05-10T13:18:04;4.75;;;3.25;;
36221;SDS011;22266;52.340;4.962;2023-05-10T13:20:30;3.25;;;3.25;;
36221;SDS011;22266;52.340;4.962;2023-05-10T13:22:57;3.50;;;2.00;;
36221;SDS011;22266;52.340;4.962;2023-05-10T13:25:23;1.25;;;1.25;;
36221;SDS011;22266;52.340;4.962;2023-05-10T13:27:50;3.25;;;2.25;;
36221;SDS011;22266;52.340;4.962;2023-05-10T13:30:16;1.00;;;1.00;;
36221;SDS011;22266;52.340;4.962;2023-05-10T13:32:43;2.75;;;2.00;;
36221;SDS011;22266;52.340;4.962;2023-05-10T13:35:10;2.00;;;2.00;;
36221;SDS011;22266;52.340;4.962;2023-05-10T13:37:36;2.00;;;2.00;;
36221;SDS011;22266;52.340;4.962;2023-05-10T13:40:03;1.25;;;1.00;;
36221;SDS011;22266;52.340;4.962;2023-05-10T13:42:30;1.00;;;1.00;;
36221;SDS011;22266;52.340;4.962;2023-05-10T13:44:59;2.00;;;1.75;;
36221;SDS011;22266;52.340;4.962;2023-05-10T13:47:27;1.25;;;1.00;;
36221;SDS011;22266;52.340;4.962;2023-05-10T13:49:54;1.75;;;1.75;;
36221;SDS011;22266;52.340;4.962;2023-05-10T13:52:20;3.25;;;3.25;;
36221;SDS011;22266;52.340;4.962;2023-05-10T13:54:50;5.00;;;2.00;;
36221;SDS011;22266;52.340;4.962;2023-05-10T13:57:21;6.25;;;5.25;;
36221;SDS011;22266;52.340;4.962;2023-05-10T13:59:47;4.00;;;4.00;;
36221;SDS011;22266;52.340;4.962;2023-05-10T14:02:14;4.25;;;2.50;;
36221;SDS011;22266;52.340;4.962;2023-05-10T14:04:40;5.50;;;4.00;;
36221;SDS011;22266;52.340;4.962;2023-05-10T14:07:07;3.75;;;3.00;;
36221;SDS011;22266;52.340;4.962;2023-05-10T14:09:34;8.00;;;6.00;;
36221;SDS011;22266;52.340;4.962;2023-05-10T14:12:00;9.25;;;8.50;;
36221;SDS011;22266;52.340;4.962;2023-05-10T14:14:26;11.67;;;9.33;;
36221;SDS011;22266;52.340;4.962;2023-05-10T14:16:55;8.50;;;8.25;;
36221;SDS011;22266;52.340;4.962;2023-05-10T14:19:21;11.67;;;9.67;;
36221;SDS011;22266;52.340;4.962;2023-05-10T14:21:48;10.00;;;7.00;;
36221;SDS011;22266;52.340;4.962;2023-05-10T14:24:14;6.67;;;6.67;;
36221;SDS011;22266;52.340;4.962;2023-05-10T14:26:41;5.00;;;5.00;;
36221;SDS011;22266;52.340;4.962;2023-05-10T14:29:08;6.67;;;5.67;;
36221;SDS011;22266;52.340;4.962;2023-05-10T14:31:38;7.00;;;6.33;;
36221;SDS011;22266;52.340;4.962;2023-05-10T14:34:05;8.50;;;6.75;;
36221;SDS011;22266;52.340;4.962;2023-05-10T14:36:31;8.67;;;7.67;;
36221;SDS011;22266;52.340;4.962;2023-05-10T14:38:58;9.00;;;7.33;;
36221;SDS011;22266;52.340;4.962;2023-05-10T14:41:24;9.33;;;8.33;;
36221;SDS011;22266;52.340;4.962;2023-05-10T14:43:51;9.00;;;6.00;;
36221;SDS011;22266;52.340;4.962;2023-05-10T14:46:17;7.33;;;7.00;;
36221;SDS011;22266;52.340;4.962;2023-05-10T14:48:44;6.00;;;5.00;;
36221;SDS011;22266;52.340;4.962;2023-05-10T14:51:10;6.00;;;5.33;;
36221;SDS011;22266;52.340;4.962;2023-05-10T14:53:37;6.50;;;6.25;;
36221;SDS011;22266;52.340;4.962;2023-05-10T14:56:03;7.75;;;6.75;;
36221;SDS011;22266;52.340;4.962;2023-05-10T14:58:30;8.00;;;6.50;;
36221;SDS011;22266;52.340;4.962;2023-05-10T15:00:59;5.33;;;5.33;;
36221;SDS011;22266;52.340;4.962;2023-05-10T15:03:26;7.33;;;6.67;;
36221;SDS011;22266;52.340;4.962;2023-05-10T15:05:53;5.00;;;4.00;;